createdAt,value
2019-02-23T00:01:15.536Z,16.23
2019-02-23T00:04:18.104Z,16.70
2019-02-23T00:07:20.721Z,16.33
2019-02-23T00:10:23.313Z,16.77
2019-02-23T00:13:26.148Z,14.33
2019-02-23T00:16:28.883Z,14.60
2019-02-23T00:19:31.661Z,16.30
2019-02-23T00:22:34.351Z,16.67
2019-02-23T00:25:37.223Z,15.40
2019-02-23T00:28:39.897Z,14.90
2019-02-23T00:31:44.852Z,15.87
2019-02-23T00:34:47.450Z,14.20
2019-02-23T00:37:50.132Z,14.33
2019-02-23T00:40:52.786Z,14.73
2019-02-23T00:43:55.482Z,14.83
2019-02-23T00:47:01.071Z,14.57
2019-02-23T00:50:04.091Z,15.13
2019-02-23T00:53:06.837Z,14.63
2019-02-23T00:56:09.422Z,14.70
2019-02-23T00:59:18.107Z,14.83
2019-02-23T01:02:18.478Z,14.70
2019-02-23T01:05:21.212Z,14.63
2019-02-23T01:08:23.869Z,14.80
2019-02-23T01:11:26.518Z,13.60
2019-02-23T01:14:29.282Z,14.33
2019-02-23T01:17:33.890Z,13.33
2019-02-23T01:20:36.575Z,13.10
2019-02-23T01:23:39.140Z,11.80
2019-02-23T01:26:44.363Z,12.70
2019-02-23T01:29:47.041Z,11.73
2019-02-23T01:32:49.692Z,13.13
2019-02-23T01:35:52.525Z,13.40
2019-02-23T01:38:55.217Z,13.00
2019-02-23T01:41:57.882Z,12.97
2019-02-23T01:45:02.857Z,11.30
2019-02-23T01:48:05.411Z,12.90
2019-02-23T01:51:08.129Z,13.13
2019-02-23T01:54:13.370Z,12.90
2019-02-23T01:57:15.341Z,12.30
2019-02-23T02:00:18.232Z,13.67
2019-02-23T02:03:21.021Z,13.10
2019-02-23T02:06:23.699Z,12.60
2019-02-23T02:09:26.361Z,12.50
2019-02-23T02:12:29.010Z,11.80
2019-02-23T02:15:31.647Z,12.83
2019-02-23T02:18:34.188Z,13.27
2019-02-23T02:21:37.756Z,13.47
2019-02-23T02:24:40.426Z,12.40
2019-02-23T02:27:43.006Z,11.77
2019-02-23T02:30:45.671Z,13.10
2019-02-23T02:34:13.238Z,12.63
2019-02-23T02:37:15.943Z,11.90
2019-02-23T02:40:18.698Z,12.27
2019-02-23T02:43:21.416Z,12.00
2019-02-23T02:46:24.025Z,11.90
2019-02-23T02:49:26.669Z,12.60
2019-02-23T02:52:29.332Z,12.10
2019-02-23T02:55:32.017Z,11.30
2019-02-23T02:58:34.710Z,11.83
2019-02-23T03:01:37.547Z,11.80
2019-02-23T03:04:40.156Z,12.20
2019-02-23T03:07:44.608Z,11.67
2019-02-23T03:10:47.210Z,10.80
2019-02-23T03:13:49.836Z,11.93
2019-02-23T03:16:52.447Z,12.40
2019-02-23T03:19:55.209Z,11.60
2019-02-23T03:22:57.791Z,11.27
2019-02-23T03:26:00.493Z,11.57
2019-02-23T03:29:03.177Z,11.70
2019-02-23T03:32:05.717Z,11.03
2019-02-23T03:35:08.450Z,11.07
2019-02-23T03:38:12.130Z,11.90
2019-02-23T03:41:14.765Z,12.00
2019-02-23T03:44:17.610Z,11.77
2019-02-23T03:47:20.398Z,11.93
2019-02-23T03:50:23.162Z,12.60
2019-02-23T03:53:26.222Z,12.17
2019-02-23T03:56:28.961Z,11.23
2019-02-23T03:59:31.681Z,12.37
2019-02-23T04:02:34.255Z,12.10
2019-02-23T04:05:37.223Z,11.60
2019-02-23T04:08:39.910Z,11.87
2019-02-23T04:11:42.578Z,11.60
2019-02-23T04:14:45.330Z,12.33
2019-02-23T04:17:47.907Z,12.43
2019-02-23T04:21:01.182Z,12.33
2019-02-23T04:23:57.892Z,13.07
2019-02-23T04:27:01.810Z,12.13
2019-02-23T04:30:04.699Z,12.80
2019-02-23T04:33:08.535Z,12.70
2019-02-23T04:36:11.166Z,12.87
2019-02-23T04:39:13.815Z,13.57
2019-02-23T04:42:16.350Z,12.20
2019-02-23T04:45:18.990Z,13.33
2019-02-23T04:48:21.554Z,13.20
2019-02-23T04:51:24.150Z,11.67
2019-02-23T04:54:26.848Z,13.27
2019-02-23T04:57:29.529Z,13.10
2019-02-23T05:00:32.373Z,13.20
2019-02-23T05:03:34.937Z,13.37
2019-02-23T05:06:40.159Z,14.13
2019-02-23T05:09:42.718Z,12.23
2019-02-23T05:12:46.470Z,12.83
2019-02-23T05:15:49.171Z,13.43
2019-02-23T05:18:51.827Z,15.07
2019-02-23T05:21:54.479Z,14.30
2019-02-23T05:24:57.055Z,13.13
2019-02-23T05:27:59.622Z,13.80
2019-02-23T05:31:02.313Z,13.67
2019-02-23T05:34:04.956Z,12.63
2019-02-23T05:37:07.567Z,13.13
2019-02-23T05:40:10.266Z,13.07
2019-02-23T05:43:12.996Z,13.60
2019-02-23T05:46:16.704Z,12.77
2019-02-23T05:49:19.293Z,13.67
2019-02-23T05:52:21.937Z,14.60
2019-02-23T05:55:24.635Z,14.03
2019-02-23T05:58:27.190Z,14.27
2019-02-23T06:01:29.891Z,15.17
2019-02-23T06:04:33.552Z,14.00
2019-02-23T06:07:36.116Z,15.27
2019-02-23T06:10:38.686Z,15.47
2019-02-23T06:13:41.391Z,15.67
2019-02-23T06:16:44.986Z,16.10
2019-02-23T06:19:47.625Z,15.87
2019-02-23T06:22:50.171Z,15.80
2019-02-23T06:25:56.407Z,16.87
2019-02-23T06:28:59.132Z,15.67
2019-02-23T06:32:01.783Z,17.10
2019-02-23T06:35:05.276Z,16.90
2019-02-23T06:38:07.990Z,16.40
2019-02-23T06:41:10.728Z,16.10
2019-02-23T06:44:13.333Z,16.47
2019-02-23T06:47:15.949Z,15.73
2019-02-23T06:50:18.532Z,16.40
2019-02-23T06:53:21.179Z,15.63
2019-02-23T06:56:23.882Z,15.83
2019-02-23T06:59:26.508Z,16.17
2019-02-23T07:02:29.299Z,16.77
2019-02-23T07:05:34.155Z,16.83
2019-02-23T07:08:36.902Z,17.03
2019-02-23T07:11:39.724Z,14.80
2019-02-23T07:14:44.127Z,16.17
2019-02-23T07:17:46.825Z,15.13
2019-02-23T07:20:49.403Z,15.80
2019-02-23T07:23:51.969Z,15.97
2019-02-23T07:26:54.565Z,14.93
2019-02-23T07:29:57.160Z,15.60
2019-02-23T07:32:59.886Z,15.60
2019-02-23T07:36:02.446Z,15.00
2019-02-23T07:39:05.429Z,16.30
2019-02-23T07:42:08.047Z,15.83
2019-02-23T07:45:10.795Z,16.37
2019-02-23T07:48:13.534Z,16.33
2019-02-23T07:51:17.792Z,14.93
2019-02-23T07:54:20.506Z,15.17
2019-02-23T07:57:23.115Z,16.53
2019-02-23T08:00:26.649Z,15.33
2019-02-23T08:03:29.225Z,15.80
2019-02-23T08:06:32.004Z,15.40
2019-02-23T08:09:34.676Z,16.00
2019-02-23T08:12:37.391Z,16.83
2019-02-23T08:15:39.960Z,16.60
2019-02-23T08:18:42.584Z,16.80
2019-02-23T08:21:45.231Z,15.80
2019-02-23T08:24:47.811Z,14.77
2019-02-23T08:27:50.529Z,17.10
2019-02-23T08:30:53.145Z,16.97
2019-02-23T08:33:55.875Z,16.93
2019-02-23T08:36:58.494Z,16.63
2019-02-23T08:40:01.375Z,15.97
2019-02-23T08:43:04.020Z,16.73
2019-02-23T08:46:06.566Z,16.07
2019-02-23T08:49:09.389Z,16.40
2019-02-23T08:52:13.554Z,17.00
2019-02-23T08:55:16.290Z,16.50
2019-02-23T08:58:18.974Z,16.63
2019-02-23T09:01:21.594Z,16.50
2019-02-23T09:04:27.414Z,16.73
2019-02-23T09:07:30.039Z,17.10
2019-02-23T09:10:34.855Z,17.57
2019-02-23T09:13:37.181Z,16.43
2019-02-23T09:16:39.951Z,17.20
2019-02-23T09:19:42.651Z,15.90
2019-02-23T09:22:45.460Z,17.63
2019-02-23T09:25:48.142Z,17.10
2019-02-23T09:28:50.841Z,16.37
2019-02-23T09:31:53.559Z,17.10
2019-02-23T09:34:56.146Z,18.00
2019-02-23T09:37:58.890Z,17.47
2019-02-23T09:41:01.495Z,17.40
2019-02-23T09:44:06.350Z,17.30
2019-02-23T09:47:09.035Z,16.27
2019-02-23T09:50:12.624Z,17.83
2019-02-23T09:53:15.291Z,17.93
2019-02-23T09:56:17.915Z,18.03
2019-02-23T09:59:20.568Z,17.73
2019-02-23T10:02:23.306Z,17.00
2019-02-23T10:05:26.014Z,17.80
2019-02-23T10:08:28.936Z,15.53
2019-02-23T10:11:31.555Z,18.27
2019-02-23T10:14:34.134Z,18.57
2019-02-23T10:17:36.881Z,17.27
2019-02-23T10:20:39.468Z,18.43
2019-02-23T10:23:42.171Z,17.53
2019-02-23T10:26:44.855Z,17.47
2019-02-23T10:29:47.450Z,16.43
2019-02-23T10:32:50.295Z,17.60
2019-02-23T10:35:52.988Z,16.50
2019-02-23T10:38:55.544Z,18.07
2019-02-23T10:41:58.211Z,16.47
2019-02-23T10:45:00.859Z,16.30
2019-02-23T10:48:03.461Z,16.83
2019-02-23T10:51:06.056Z,17.43
2019-02-23T10:54:08.754Z,17.03
2019-02-23T10:57:11.432Z,16.67
2019-02-23T11:00:18.672Z,17.20
2019-02-23T11:03:21.344Z,15.07
2019-02-23T11:06:23.979Z,15.10
2019-02-23T11:09:34.942Z,14.83
2019-02-23T11:12:37.494Z,15.93
2019-02-23T11:15:40.121Z,15.10
2019-02-23T11:18:42.756Z,16.53
2019-02-23T11:21:47.294Z,17.27
2019-02-23T11:24:49.976Z,16.80
2019-02-23T11:27:54.718Z,15.57
2019-02-23T11:30:57.176Z,16.57
2019-02-23T11:33:59.898Z,15.10
2019-02-23T11:37:02.466Z,15.60
2019-02-23T11:40:06.092Z,15.10
2019-02-23T11:43:08.670Z,15.00
2019-02-23T11:46:11.333Z,15.50
2019-02-23T11:49:14.032Z,15.13
2019-02-23T11:52:16.624Z,14.87
2019-02-23T11:55:20.279Z,16.10
2019-02-23T11:58:22.934Z,15.60
2019-02-23T12:01:26.694Z,15.23
2019-02-23T12:04:29.460Z,15.20
2019-02-23T12:07:33.540Z,14.50
2019-02-23T12:10:36.259Z,14.50
2019-02-23T12:13:38.804Z,14.73
2019-02-23T12:16:41.470Z,15.30
2019-02-23T12:19:44.190Z,15.57
2019-02-23T12:22:46.998Z,15.27
2019-02-23T12:25:49.708Z,19.90
2019-02-23T12:28:52.545Z,17.67
2019-02-23T12:31:55.231Z,16.43
2019-02-23T12:34:57.884Z,15.97
2019-02-23T12:38:00.506Z,15.97
2019-02-23T12:41:03.238Z,14.97
2019-02-23T12:44:06.023Z,15.50
2019-02-23T12:47:08.703Z,14.30
2019-02-23T12:50:12.604Z,14.37
2019-02-23T12:53:15.363Z,14.10
2019-02-23T12:56:17.912Z,14.57
2019-02-23T12:59:20.535Z,14.27
2019-02-23T13:02:23.180Z,13.83
2019-02-23T13:05:25.939Z,13.73
2019-02-23T13:08:55.544Z,13.63
2019-02-23T13:12:08.941Z,13.17
2019-02-23T13:15:21.268Z,12.77
2019-02-23T13:18:56.301Z,11.70
2019-02-23T13:22:39.586Z,11.40
2019-02-23T13:26:08.174Z,11.97
2019-02-23T13:29:39.614Z,13.33
2019-02-23T13:33:09.924Z,13.63
2019-02-23T13:36:50.571Z,12.50
2019-02-23T13:40:32.951Z,14.23
2019-02-23T13:43:59.678Z,13.30
2019-02-23T13:47:25.132Z,13.60
2019-02-23T13:51:01.289Z,12.90
2019-02-23T13:54:50.686Z,14.37
2019-02-23T13:58:32.248Z,13.30
2019-02-23T14:02:19.839Z,11.90
2019-02-23T14:05:55.709Z,12.40
2019-02-23T14:09:38.854Z,11.70
2019-02-23T14:13:17.270Z,12.53
2019-02-23T14:16:57.678Z,12.13
2019-02-23T14:20:47.366Z,13.13
2019-02-23T14:24:24.546Z,11.60
2019-02-23T14:27:55.938Z,13.50
2019-02-23T14:31:22.784Z,14.23
2019-02-23T14:34:58.250Z,13.37
2019-02-23T14:38:45.534Z,12.77
2019-02-23T14:42:12.183Z,12.30
2019-02-23T14:45:43.923Z,13.13
2019-02-23T14:49:34.078Z,13.73
2019-02-23T14:53:27.718Z,12.43
2019-02-23T14:57:13.965Z,13.27
2019-02-23T15:00:29.319Z,13.90
2019-02-23T15:04:09.710Z,13.70
2019-02-23T15:07:47.414Z,13.27
2019-02-23T15:11:18.093Z,13.20
2019-02-23T15:15:07.614Z,12.20
2019-02-23T15:18:53.464Z,12.20
2019-02-23T15:22:32.759Z,12.90
2019-02-23T15:26:30.708Z,13.33
2019-02-23T15:30:24.039Z,13.13
2019-02-23T15:34:17.287Z,12.37
2019-02-23T15:37:43.949Z,12.40
2019-02-23T15:41:13.443Z,12.80
2019-02-23T15:44:53.059Z,12.40
2019-02-23T15:48:28.254Z,12.23
2019-02-23T15:51:30.903Z,12.40
2019-02-23T15:54:33.722Z,12.17
2019-02-23T15:57:36.389Z,12.90
2019-02-23T16:00:39.033Z,12.30
2019-02-23T16:03:41.733Z,11.27
2019-02-23T16:06:44.487Z,12.10
2019-02-23T16:09:47.169Z,13.00
2019-02-23T16:12:52.509Z,12.30
2019-02-23T16:15:54.358Z,12.20
2019-02-23T16:18:57.017Z,10.80
2019-02-23T16:21:59.673Z,11.13
2019-02-23T16:25:02.302Z,11.30
2019-02-23T16:28:04.970Z,11.40
2019-02-23T16:31:07.624Z,11.90
2019-02-23T16:34:10.378Z,11.40
2019-02-23T16:37:13.049Z,10.90
2019-02-23T16:40:15.675Z,11.23
2019-02-23T16:43:18.319Z,11.43
2019-02-23T16:46:22.167Z,11.40
2019-02-23T16:49:24.828Z,10.10
2019-02-23T16:52:27.539Z,11.10
2019-02-23T16:55:30.127Z,10.93
2019-02-23T16:58:32.700Z,11.33
2019-02-23T17:01:35.324Z,11.60
2019-02-23T17:04:38.107Z,10.83
2019-02-23T17:07:40.758Z,12.87
2019-02-23T17:10:43.409Z,12.83
2019-02-23T17:13:46.087Z,12.83
2019-02-23T17:16:48.788Z,11.60
2019-02-23T17:19:51.439Z,11.47
2019-02-23T17:22:54.043Z,12.70
2019-02-23T17:26:04.222Z,11.33
2019-02-23T17:29:01.099Z,12.47
2019-02-23T17:32:03.712Z,11.80
2019-02-23T17:35:06.443Z,10.60
2019-02-23T17:38:16.163Z,11.47
2019-02-23T17:41:13.541Z,11.17
2019-02-23T17:44:16.156Z,11.47
2019-02-23T17:47:18.973Z,12.43
2019-02-23T17:50:25.133Z,11.80
2019-02-23T17:53:27.887Z,12.70
2019-02-23T17:56:30.542Z,11.87
2019-02-23T17:59:33.158Z,12.97
2019-02-23T18:02:35.727Z,14.07
2019-02-23T18:05:38.414Z,16.60
2019-02-23T18:08:40.961Z,17.27
2019-02-23T18:11:48.689Z,14.67
2019-02-23T18:14:50.523Z,11.23
2019-02-23T18:17:55.118Z,12.40
2019-02-23T18:20:57.715Z,10.60
2019-02-23T18:24:00.325Z,11.90
2019-02-23T18:27:02.862Z,10.67
2019-02-23T18:30:11.320Z,11.30
2019-02-23T18:33:11.734Z,11.70
2019-02-23T18:36:14.562Z,11.60
2019-02-23T18:39:17.328Z,11.57
2019-02-23T18:42:19.978Z,11.70
2019-02-23T18:45:22.713Z,11.90
2019-02-23T18:48:25.298Z,11.70
2019-02-23T18:51:28.173Z,12.27
2019-02-23T18:54:30.893Z,11.07
2019-02-23T18:57:33.679Z,11.63
2019-02-23T19:00:36.265Z,11.40
2019-02-23T19:03:38.948Z,11.00
2019-02-23T19:06:41.732Z,12.40
2019-02-23T19:09:44.550Z,11.40
2019-02-23T19:12:47.212Z,11.53
2019-02-23T19:15:49.871Z,12.00
2019-02-23T19:18:52.629Z,11.20
2019-02-23T19:21:55.187Z,11.90
2019-02-23T19:24:57.874Z,11.47
2019-02-23T19:28:00.543Z,11.80
2019-02-23T19:31:03.289Z,12.07
2019-02-23T19:34:05.935Z,11.90
2019-02-23T19:37:10.976Z,11.57
2019-02-23T19:40:14.021Z,13.30
2019-02-23T19:43:16.707Z,11.70
2019-02-23T19:46:19.768Z,11.50
2019-02-23T19:49:22.419Z,12.20
2019-02-23T19:52:25.196Z,12.00
2019-02-23T19:55:28.967Z,11.43
2019-02-23T19:58:31.624Z,12.47
2019-02-23T20:01:34.279Z,14.60
2019-02-23T20:04:36.907Z,12.13
2019-02-23T20:07:39.790Z,12.13
2019-02-23T20:10:43.017Z,12.70
2019-02-23T20:13:46.972Z,11.57
2019-02-23T20:16:52.812Z,11.60
2019-02-23T20:19:55.503Z,11.60
2019-02-23T20:23:00.139Z,11.70
2019-02-23T20:26:04.701Z,11.40
2019-02-23T20:29:07.457Z,11.50
2019-02-23T20:32:10.298Z,11.00
2019-02-23T20:35:12.873Z,11.97
2019-02-23T20:38:15.563Z,12.07
2019-02-23T20:41:18.237Z,11.47
2019-02-23T20:44:21.018Z,11.47
2019-02-23T20:47:23.687Z,12.00
2019-02-23T20:50:26.393Z,12.00
2019-02-23T20:53:29.211Z,12.17
2019-02-23T20:56:31.892Z,11.93
2019-02-23T20:59:34.676Z,12.87
2019-02-23T21:02:41.517Z,11.67
2019-02-23T21:05:44.234Z,11.70
2019-02-23T21:08:47.046Z,12.00
2019-02-23T21:11:49.807Z,11.63
2019-02-23T21:14:53.623Z,10.90
2019-02-23T21:17:56.288Z,12.53
2019-02-23T21:20:58.995Z,12.00
2019-02-23T21:24:01.662Z,11.77
2019-02-23T21:27:12.679Z,12.00
2019-02-23T21:30:09.140Z,11.40
2019-02-23T21:33:11.888Z,11.60
2019-02-23T21:36:14.558Z,12.27
2019-02-23T21:39:17.217Z,14.17
2019-02-23T21:42:19.943Z,12.27
2019-02-23T21:45:22.662Z,11.80
2019-02-23T21:48:32.907Z,12.73
2019-02-23T21:51:34.854Z,11.13
2019-02-23T21:54:38.539Z,11.87
2019-02-23T21:57:42.225Z,12.30
2019-02-23T22:00:44.944Z,11.50
2019-02-23T22:03:47.719Z,12.20
2019-02-23T22:06:51.540Z,11.57
2019-02-23T22:09:56.047Z,12.00
2019-02-23T22:13:01.971Z,10.83
2019-02-23T22:16:04.646Z,11.70
2019-02-23T22:19:08.460Z,11.10
2019-02-23T22:22:11.192Z,10.60
2019-02-23T22:25:13.962Z,11.87
2019-02-23T22:28:16.507Z,11.10
2019-02-23T22:31:19.157Z,12.03
2019-02-23T22:34:21.776Z,11.60
2019-02-23T22:37:24.458Z,11.20
2019-02-23T22:40:27.082Z,11.90
2019-02-23T22:43:29.713Z,11.47
2019-02-23T22:46:32.423Z,9.87
2019-02-23T22:49:34.963Z,10.50
2019-02-23T22:52:38.873Z,10.90
2019-02-23T22:55:41.444Z,11.73
2019-02-23T22:58:44.179Z,11.27
2019-02-23T23:01:46.962Z,11.70
2019-02-23T23:04:50.856Z,11.27
2019-02-23T23:07:55.322Z,11.53
2019-02-23T23:10:57.942Z,11.30
2019-02-23T23:14:00.543Z,11.30
2019-02-23T23:17:03.233Z,11.40
2019-02-23T23:20:06.272Z,11.57
2019-02-23T23:23:08.997Z,10.17
2019-02-23T23:26:11.813Z,10.67
2019-02-23T23:29:14.583Z,11.73
2019-02-23T23:32:17.271Z,10.90
2019-02-23T23:35:19.969Z,10.57
2019-02-23T23:38:22.513Z,10.50
2019-02-23T23:41:25.292Z,11.10
2019-02-23T23:44:27.958Z,11.57
2019-02-23T23:47:30.632Z,10.97
2019-02-23T23:50:33.222Z,10.97
2019-02-23T23:53:35.790Z,10.60
2019-02-23T23:56:38.499Z,11.50
2019-02-23T23:59:41.362Z,10.50
